createdAt,value
2019-01-30T00:00:17.178Z,1.06
2019-01-30T00:01:17.175Z,1.07
2019-01-30T00:02:17.129Z,1.01
2019-01-30T00:03:17.097Z,1.01
2019-01-30T00:04:17.079Z,1.07
2019-01-30T00:05:17.311Z,1.01
2019-01-30T00:06:17.281Z,0.96
2019-01-30T00:07:17.263Z,1.03
2019-01-30T00:08:17.245Z,0.97
2019-01-30T00:09:17.211Z,1.01
2019-01-30T00:10:16.936Z,1
2019-01-30T00:11:16.652Z,0.97
2019-01-30T00:12:17.151Z,1
2019-01-30T00:13:17.146Z,0.92
2019-01-30T00:14:17.123Z,0.92
2019-01-30T00:15:16.851Z,0.94
2019-01-30T00:16:16.544Z,0.92
2019-01-30T00:17:17.047Z,1.01
2019-01-30T00:18:16.747Z,1
2019-01-30T00:19:16.719Z,1
2019-01-30T00:20:16.954Z,0.88
2019-01-30T00:21:16.668Z,0.94
2019-01-30T00:22:16.903Z,0.89
2019-01-30T00:23:16.629Z,0.88
2019-01-30T00:24:16.601Z,0.98
2019-01-30T00:25:16.575Z,0.9
2019-01-30T00:26:16.556Z,0.89
2019-01-30T00:27:16.529Z,0.85
2019-01-30T00:28:16.500Z,0.89
2019-01-30T00:29:16.507Z,0.96
2019-01-30T00:30:16.788Z,0.85
2019-01-30T00:31:16.439Z,0.9
2019-01-30T00:32:17.631Z,1.01
2019-01-30T00:33:16.662Z,1.01
2019-01-30T00:34:16.401Z,1.03
2019-01-30T00:35:16.592Z,0.94
2019-01-30T00:36:16.061Z,0.97
2019-01-30T00:37:16.039Z,0.96
2019-01-30T00:38:16.526Z,1.01
2019-01-30T00:39:16.498Z,1.1
2019-01-30T00:40:16.473Z,0.98
2019-01-30T00:41:16.201Z,1.04
2019-01-30T00:42:16.430Z,1.03
2019-01-30T00:43:16.149Z,1.03
2019-01-30T00:44:16.382Z,1
2019-01-30T00:45:16.113Z,1.03
2019-01-30T00:46:16.089Z,1.07
2019-01-30T00:47:20.693Z,1.03
2019-01-30T00:48:16.285Z,1.03
2019-01-30T00:49:15.753Z,1.14
2019-01-30T00:50:15.731Z,0.97
2019-01-30T00:51:15.703Z,1.12
2019-01-30T00:52:15.943Z,1.15
2019-01-30T00:53:15.914Z,1.14
2019-01-30T00:54:15.629Z,1.1
2019-01-30T00:55:16.132Z,1.16
2019-01-30T00:56:15.848Z,1.18
2019-01-30T00:57:15.825Z,1.14
2019-01-30T00:58:15.561Z,1.22
2019-01-30T00:59:16.105Z,1.04
2019-01-30T01:00:19.232Z,1.07
2019-01-30T01:01:15.972Z,1.07
2019-01-30T01:02:15.953Z,1.15
2019-01-30T01:03:15.934Z,1.03
2019-01-30T01:04:15.658Z,1.12
2019-01-30T01:05:15.899Z,1.15
2019-01-30T01:06:15.603Z,1.01
2019-01-30T01:07:15.574Z,1.15
2019-01-30T01:08:15.500Z,1.14
2019-01-30T01:09:15.788Z,1.1
2019-01-30T01:10:15.271Z,1.1
2019-01-30T01:11:15.484Z,1.12
2019-01-30T01:12:15.455Z,1.04
2019-01-30T01:13:17.125Z,1.08
2019-01-30T01:14:15.676Z,1.08
2019-01-30T01:15:15.398Z,1.1
2019-01-30T01:16:15.620Z,1.14
2019-01-30T01:17:15.343Z,1.1
2019-01-30T01:18:15.319Z,1.07
2019-01-30T01:19:15.291Z,1.15
2019-01-30T01:20:15.531Z,1.14
2019-01-30T01:21:15.506Z,1.16
2019-01-30T01:22:15.221Z,1.1
2019-01-30T01:23:14.951Z,1.16
2019-01-30T01:24:15.176Z,1.19
2019-01-30T01:25:15.221Z,1.16
2019-01-30T01:26:14.880Z,1.1
2019-01-30T01:27:15.354Z,1.14
2019-01-30T01:28:15.085Z,1.16
2019-01-30T01:29:15.343Z,1
2019-01-30T01:30:24.488Z,1.04
2019-01-30T01:31:15.368Z,1.04
2019-01-30T01:32:15.244Z,1.07
2019-01-30T01:33:15.223Z,1
2019-01-30T01:34:15.197Z,1.04
2019-01-30T01:35:15.195Z,1.03
2019-01-30T01:36:14.897Z,1.03
2019-01-30T01:37:15.152Z,1.01
2019-01-30T01:38:14.841Z,1.07
2019-01-30T01:39:14.831Z,0.98
2019-01-30T01:40:15.067Z,1.06
2019-01-30T01:41:15.049Z,1.01
2019-01-30T01:42:14.783Z,1.03
2019-01-30T01:43:14.980Z,1.01
2019-01-30T01:44:14.959Z,0.96
2019-01-30T01:45:14.515Z,1.01
2019-01-30T01:46:15.162Z,0.98
2019-01-30T01:47:14.630Z,0.94
2019-01-30T01:48:14.362Z,0.94
2019-01-30T01:49:14.835Z,0.92
2019-01-30T01:50:14.551Z,0.9
2019-01-30T01:51:14.789Z,0.89
2019-01-30T01:52:14.515Z,0.88
2019-01-30T01:53:14.748Z,0.88
2019-01-30T01:54:14.463Z,0.85
2019-01-30T01:55:14.688Z,0.9
2019-01-30T01:56:14.161Z,0.89
2019-01-30T01:57:14.145Z,0.94
2019-01-30T01:58:14.620Z,0.88
2019-01-30T01:59:14.593Z,0.85
2019-01-30T02:00:14.309Z,0.86
2019-01-30T02:01:14.294Z,0.88
2019-01-30T02:02:14.262Z,0.83
2019-01-30T02:03:14.498Z,0.79
2019-01-30T02:04:14.220Z,0.79
2019-01-30T02:05:14.459Z,0.82
2019-01-30T02:06:14.434Z,0.85
2019-01-30T02:07:14.263Z,0.83
2019-01-30T02:08:14.380Z,0.79
2019-01-30T02:09:14.102Z,0.79
2019-01-30T02:10:14.334Z,0.79
2019-01-30T02:11:13.804Z,0.71
2019-01-30T02:12:14.283Z,0.8
2019-01-30T02:13:14.262Z,0.75
2019-01-30T02:14:14.239Z,0.7
2019-01-30T02:15:14.228Z,0.79
2019-01-30T02:16:14.009Z,0.79
2019-01-30T02:17:14.201Z,0.68
2019-01-30T02:18:13.885Z,0.62
2019-01-30T02:19:14.117Z,0.65
2019-01-30T02:20:14.090Z,0.7
2019-01-30T02:21:13.575Z,0.61
2019-01-30T02:22:13.795Z,0.62
2019-01-30T02:23:14.024Z,0.65
2019-01-30T02:24:13.742Z,0.68
2019-01-30T02:25:14.036Z,0.67
2019-01-30T02:26:13.691Z,0.67
2019-01-30T02:27:13.686Z,0.65
2019-01-30T02:28:13.900Z,0.67
2019-01-30T02:29:13.633Z,0.6
2019-01-30T02:30:13.606Z,0.62
2019-01-30T02:31:13.572Z,0.65
2019-01-30T02:32:13.825Z,0.7
2019-01-30T02:33:13.614Z,0.65
2019-01-30T02:34:13.506Z,0.7
2019-01-30T02:35:13.748Z,0.65
2019-01-30T02:36:13.458Z,0.64
2019-01-30T02:37:13.450Z,0.65
2019-01-30T02:38:13.403Z,0.7
2019-01-30T02:39:13.131Z,0.7
2019-01-30T02:40:13.359Z,0.72
2019-01-30T02:41:13.366Z,0.68
2019-01-30T02:42:13.574Z,0.68
2019-01-30T02:43:13.293Z,0.68
2019-01-30T02:44:13.530Z,0.7
2019-01-30T02:45:13.492Z,0.7
2019-01-30T02:46:13.214Z,0.7
2019-01-30T02:47:13.692Z,0.76
2019-01-30T02:48:13.436Z,0.76
2019-01-30T02:49:12.897Z,0.75
2019-01-30T02:50:12.874Z,0.71
2019-01-30T02:51:13.347Z,0.83
2019-01-30T02:52:13.070Z,0.72
2019-01-30T02:53:13.043Z,0.75
2019-01-30T02:54:13.019Z,0.75
2019-01-30T02:55:13.262Z,0.83
2019-01-30T02:56:12.723Z,0.76
2019-01-30T02:57:12.956Z,0.76
2019-01-30T02:58:12.935Z,0.72
2019-01-30T02:59:12.902Z,0.79
2019-01-30T03:00:12.912Z,0.75
2019-01-30T03:01:12.856Z,0.79
2019-01-30T03:02:13.190Z,0.85
2019-01-30T03:03:13.058Z,0.75
2019-01-30T03:04:12.777Z,0.82
2019-01-30T03:05:12.758Z,0.72
2019-01-30T03:06:12.993Z,0.9
2019-01-30T03:07:12.957Z,0.76
2019-01-30T03:08:12.635Z,0.82
2019-01-30T03:09:12.658Z,0.82
2019-01-30T03:10:12.889Z,0.76
2019-01-30T03:11:12.613Z,0.83
2019-01-30T03:12:12.849Z,0.75
2019-01-30T03:13:12.320Z,0.79
2019-01-30T03:14:12.793Z,0.82
2019-01-30T03:15:12.515Z,0.86
2019-01-30T03:16:12.498Z,0.72
2019-01-30T03:17:12.468Z,0.85
2019-01-30T03:18:12.713Z,0.76
2019-01-30T03:19:12.428Z,0.71
2019-01-30T03:20:12.400Z,0.75
2019-01-30T03:21:12.384Z,0.64
2019-01-30T03:22:12.645Z,0.65
2019-01-30T03:23:12.325Z,0.75
2019-01-30T03:24:12.299Z,0.68
2019-01-30T03:25:12.275Z,0.72
2019-01-30T03:26:12.254Z,0.7
2019-01-30T03:27:12.225Z,0.7
2019-01-30T03:28:12.202Z,0.67
2019-01-30T03:29:12.176Z,0.68
2019-01-30T03:30:12.163Z,0.65
2019-01-30T03:31:22.596Z,0.64
2019-01-30T03:32:12.383Z,0.7
2019-01-30T03:33:12.353Z,0.7
2019-01-30T03:34:12.061Z,0.62
2019-01-30T03:35:12.291Z,0.67
2019-01-30T03:36:11.755Z,0.67
2019-01-30T03:37:12.242Z,0.7
2019-01-30T03:38:12.218Z,0.68
2019-01-30T03:39:12.190Z,0.65
2019-01-30T03:40:12.175Z,0.67
2019-01-30T03:41:12.148Z,0.64
2019-01-30T03:42:12.129Z,0.61
2019-01-30T03:43:12.101Z,0.64
2019-01-30T03:44:11.814Z,0.64
2019-01-30T03:45:11.798Z,0.65
2019-01-30T03:46:12.025Z,0.6
2019-01-30T03:47:11.757Z,0.61
2019-01-30T03:48:11.716Z,0.61
2019-01-30T03:49:11.950Z,0.65
2019-01-30T03:50:11.929Z,0.62
2019-01-30T03:51:11.652Z,0.62
2019-01-30T03:52:11.889Z,0.62
2019-01-30T03:53:11.633Z,0.58
2019-01-30T03:54:11.580Z,0.62
2019-01-30T03:55:11.559Z,0.6
2019-01-30T03:56:11.525Z,0.65
2019-01-30T03:57:11.513Z,0.58
2019-01-30T03:58:11.737Z,0.6
2019-01-30T03:59:11.711Z,0.64
2019-01-30T04:00:11.442Z,0.61
2019-01-30T04:01:11.161Z,0.62
2019-01-30T04:02:11.650Z,0.62
2019-01-30T04:03:11.108Z,0.58
2019-01-30T04:04:11.602Z,0.62
2019-01-30T04:05:11.310Z,0.61
2019-01-30T04:06:11.558Z,0.6
2019-01-30T04:07:11.529Z,0.62
2019-01-30T04:08:11.017Z,0.7
2019-01-30T04:09:11.467Z,0.67
2019-01-30T04:10:10.944Z,0.65
2019-01-30T04:11:11.425Z,0.65
2019-01-30T04:12:11.395Z,0.67
2019-01-30T04:13:10.880Z,0.7
2019-01-30T04:14:11.107Z,0.7
2019-01-30T04:15:11.071Z,0.65
2019-01-30T04:16:11.301Z,0.68
2019-01-30T04:17:11.039Z,0.67
2019-01-30T04:18:11.006Z,0.65
2019-01-30T04:19:10.719Z,0.62
2019-01-30T04:20:11.225Z,0.67
2019-01-30T04:21:11.185Z,0.62
2019-01-30T04:22:10.656Z,0.62
2019-01-30T04:23:11.170Z,0.65
2019-01-30T04:24:11.122Z,0.65
2019-01-30T04:25:11.091Z,0.7
2019-01-30T04:26:11.062Z,0.67
2019-01-30T04:27:11.131Z,0.67
2019-01-30T04:28:11.268Z,0.68
2019-01-30T04:29:10.987Z,0.71
2019-01-30T04:30:10.732Z,0.65
2019-01-30T04:31:10.943Z,0.64
2019-01-30T04:32:10.665Z,0.65
2019-01-30T04:33:10.652Z,0.62
2019-01-30T04:34:10.612Z,0.6
2019-01-30T04:35:10.853Z,0.68
2019-01-30T04:36:10.312Z,0.7
2019-01-30T04:37:10.801Z,0.65
2019-01-30T04:38:10.523Z,0.65
2019-01-30T04:39:10.246Z,0.67
2019-01-30T04:40:10.754Z,0.65
2019-01-30T04:41:10.705Z,0.7
2019-01-30T04:42:10.428Z,0.62
2019-01-30T04:43:10.656Z,0.62
2019-01-30T04:44:10.510Z,0.65
2019-01-30T04:45:10.352Z,0.62
2019-01-30T04:46:10.594Z,0.62
2019-01-30T04:47:10.595Z,0.62
2019-01-30T04:48:10.118Z,0.64
2019-01-30T04:49:10.271Z,0.64
2019-01-30T04:50:10.273Z,0.61
2019-01-30T04:51:10.216Z,0.62
2019-01-30T04:52:10.190Z,0.6
2019-01-30T04:53:10.197Z,0.62
2019-01-30T04:54:10.410Z,0.64
2019-01-30T04:55:10.113Z,0.53
2019-01-30T04:56:10.088Z,0.62
2019-01-30T04:57:10.322Z,0.64
2019-01-30T04:58:10.388Z,0.57
2019-01-30T04:59:10.282Z,0.62
2019-01-30T05:00:09.995Z,0.62
2019-01-30T05:01:09.719Z,0.62
2019-01-30T05:02:10.226Z,0.64
2019-01-30T05:03:09.920Z,0.6
2019-01-30T05:04:10.156Z,0.6
2019-01-30T05:05:10.125Z,0.58
2019-01-30T05:06:09.844Z,0.64
2019-01-30T05:07:09.579Z,0.61
2019-01-30T05:08:10.002Z,0.65
2019-01-30T05:09:09.529Z,0.6
2019-01-30T05:10:09.757Z,0.53
2019-01-30T05:11:09.732Z,0.6
2019-01-30T05:12:09.719Z,0.57
2019-01-30T05:13:10.115Z,0.53
2019-01-30T05:14:09.919Z,0.58
2019-01-30T05:15:09.370Z,0.57
2019-01-30T05:16:09.964Z,0.6
2019-01-30T05:17:09.604Z,0.52
2019-01-30T05:18:09.315Z,0.51
2019-01-30T05:19:09.276Z,0.49
2019-01-30T05:20:12.006Z,0.48
2019-01-30T05:21:09.483Z,0.6
2019-01-30T05:22:09.458Z,0.52
2019-01-30T05:23:09.739Z,0.51
2019-01-30T05:24:09.406Z,0.51
2019-01-30T05:25:09.646Z,0.46
2019-01-30T05:26:09.620Z,0.48
2019-01-30T05:27:09.095Z,0.48
2019-01-30T05:28:09.569Z,0.43
2019-01-30T05:29:09.041Z,0.48
2019-01-30T05:30:09.267Z,0.49
2019-01-30T05:31:09.493Z,0.57
2019-01-30T05:32:09.506Z,0.43
2019-01-30T05:33:09.214Z,0.43
2019-01-30T05:34:09.444Z,0.48
2019-01-30T05:35:09.413Z,0.51
2019-01-30T05:36:09.435Z,0.49
2019-01-30T05:37:09.096Z,0.49
2019-01-30T05:38:09.085Z,0.48
2019-01-30T05:39:09.307Z,0.45
2019-01-30T05:40:09.038Z,0.58
2019-01-30T05:41:09.005Z,0.49
2019-01-30T05:42:08.980Z,0.46
2019-01-30T05:43:08.954Z,0.45
2019-01-30T05:44:08.712Z,0.46
2019-01-30T05:45:09.154Z,0.49
2019-01-30T05:46:08.885Z,0.51
2019-01-30T05:47:08.606Z,0.46
2019-01-30T05:48:08.576Z,0.48
2019-01-30T05:49:09.060Z,0.57
2019-01-30T05:50:08.785Z,0.49
2019-01-30T05:51:08.786Z,0.53
2019-01-30T05:52:08.736Z,0.62
2019-01-30T05:53:08.726Z,0.58
2019-01-30T05:54:08.687Z,0.58
2019-01-30T05:55:08.923Z,0.61
2019-01-30T05:56:08.674Z,0.58
2019-01-30T05:57:08.359Z,0.61
2019-01-30T05:58:08.844Z,0.65
2019-01-30T05:59:08.565Z,0.62
2019-01-30T06:00:08.811Z,0.64
2019-01-30T06:01:08.264Z,0.7
2019-01-30T06:02:18.285Z,0.68
2019-01-30T06:03:08.482Z,0.67
2019-01-30T06:04:08.702Z,0.65
2019-01-30T06:05:08.425Z,0.7
2019-01-30T06:06:08.648Z,0.71
2019-01-30T06:07:08.654Z,0.7
2019-01-30T06:08:08.602Z,0.71
2019-01-30T06:09:08.330Z,0.7
2019-01-30T06:10:08.299Z,0.68
2019-01-30T06:11:08.287Z,0.71
2019-01-30T06:12:08.259Z,0.75
2019-01-30T06:13:08.482Z,0.76
2019-01-30T06:14:08.463Z,0.76
2019-01-30T06:15:08.439Z,0.78
2019-01-30T06:16:07.897Z,0.71
2019-01-30T06:17:09.581Z,0.78
2019-01-30T06:18:07.851Z,0.76
2019-01-30T06:19:07.832Z,0.71
2019-01-30T06:20:07.805Z,0.78
2019-01-30T06:21:08.292Z,0.72
2019-01-30T06:22:08.022Z,0.8
2019-01-30T06:23:08.251Z,0.76
2019-01-30T06:24:08.228Z,0.78
2019-01-30T06:25:08.244Z,0.78
2019-01-30T06:26:08.171Z,0.75
2019-01-30T06:27:08.168Z,0.78
2019-01-30T06:28:08.135Z,0.7
2019-01-30T06:29:07.854Z,0.75
2019-01-30T06:30:08.073Z,0.76
2019-01-30T06:31:08.054Z,0.72
2019-01-30T06:32:07.951Z,0.68
2019-01-30T06:33:08.025Z,0.72
2019-01-30T06:34:07.992Z,0.67
2019-01-30T06:35:07.700Z,0.76
2019-01-30T06:36:07.675Z,0.71
2019-01-30T06:37:07.406Z,0.75
2019-01-30T06:38:07.887Z,0.82
2019-01-30T06:39:07.859Z,0.8
2019-01-30T06:40:07.869Z,0.76
2019-01-30T06:41:07.555Z,0.75
2019-01-30T06:42:07.530Z,0.8
2019-01-30T06:43:07.858Z,0.79
2019-01-30T06:44:07.489Z,0.79
2019-01-30T06:45:07.720Z,0.75
2019-01-30T06:46:07.435Z,0.79
2019-01-30T06:47:07.418Z,0.71
2019-01-30T06:48:07.385Z,0.75
2019-01-30T06:49:07.421Z,0.71
2019-01-30T06:50:07.360Z,0.78
2019-01-30T06:51:07.064Z,0.71
2019-01-30T06:52:07.289Z,0.71
2019-01-30T06:53:07.622Z,0.76
2019-01-30T06:54:07.247Z,0.85
2019-01-30T06:55:06.962Z,0.88
2019-01-30T06:56:07.193Z,0.75
2019-01-30T06:57:07.194Z,0.79
2019-01-30T06:58:07.496Z,0.85
2019-01-30T06:59:07.138Z,0.79
2019-01-30T07:00:07.129Z,0.82
2019-01-30T07:01:07.082Z,0.88
2019-01-30T07:02:07.316Z,0.79
2019-01-30T07:03:07.030Z,0.78
2019-01-30T07:04:07.261Z,0.89
2019-01-30T07:05:07.236Z,0.88
2019-01-30T07:06:07.820Z,0.85
2019-01-30T07:07:06.929Z,0.86
2019-01-30T07:08:07.173Z,0.85
2019-01-30T07:09:06.961Z,0.86
2019-01-30T07:10:06.859Z,0.85
2019-01-30T07:11:15.271Z,0.85
2019-01-30T07:12:07.075Z,0.9
2019-01-30T07:13:06.787Z,0.82
2019-01-30T07:14:06.809Z,0.92
2019-01-30T07:15:06.744Z,0.79
2019-01-30T07:16:06.968Z,0.82
2019-01-30T07:17:06.945Z,0.85
2019-01-30T07:18:06.940Z,0.89
2019-01-30T07:19:06.899Z,0.9
2019-01-30T07:20:06.369Z,0.89
2019-01-30T07:21:06.626Z,0.88
2019-01-30T07:22:06.569Z,0.96
2019-01-30T07:23:06.801Z,0.89
2019-01-30T07:24:06.272Z,0.86
2019-01-30T07:25:06.759Z,0.92
2019-01-30T07:26:06.736Z,0.88
2019-01-30T07:27:06.206Z,0.98
2019-01-30T07:28:06.683Z,0.89
2019-01-30T07:29:06.446Z,0.89
2019-01-30T07:30:06.387Z,0.89
2019-01-30T07:31:06.351Z,0.88
2019-01-30T07:32:06.586Z,0.9
2019-01-30T07:33:06.354Z,0.9
2019-01-30T07:34:06.279Z,0.9
2019-01-30T07:35:06.008Z,0.85
2019-01-30T07:36:06.234Z,0.83
2019-01-30T07:37:06.483Z,1
2019-01-30T07:38:06.193Z,0.85
2019-01-30T07:39:06.167Z,1
2019-01-30T07:40:06.391Z,0.97
2019-01-30T07:41:06.112Z,0.98
2019-01-30T07:42:06.092Z,1.07
2019-01-30T07:43:06.069Z,1.01
2019-01-30T07:44:06.050Z,0.94
2019-01-30T07:45:06.020Z,0.98
2019-01-30T07:46:06.260Z,1.07
2019-01-30T07:47:06.261Z,1.01
2019-01-30T07:48:06.207Z,1
2019-01-30T07:49:05.674Z,0.97
2019-01-30T07:50:05.650Z,1.1
2019-01-30T07:51:05.878Z,1.04
2019-01-30T07:52:06.108Z,1.07
2019-01-30T07:53:06.093Z,1.07
2019-01-30T07:54:05.806Z,1.06
2019-01-30T07:55:06.174Z,0.98
2019-01-30T07:56:06.026Z,1.1
2019-01-30T07:57:05.481Z,1.12
2019-01-30T07:58:08.374Z,1.04
2019-01-30T07:59:05.690Z,1.14
2019-01-30T08:00:05.929Z,1.18
2019-01-30T08:01:05.437Z,1.24
2019-01-30T08:02:05.968Z,1.18
2019-01-30T08:03:05.587Z,1.15
2019-01-30T08:04:05.833Z,1.15
2019-01-30T08:05:05.548Z,1.14
2019-01-30T08:06:05.520Z,1.18
2019-01-30T08:07:07.775Z,1.21
2019-01-30T08:08:05.309Z,1.19
2019-01-30T08:09:05.702Z,1.16
2019-01-30T08:10:05.424Z,1.14
2019-01-30T08:11:07.240Z,1.25
2019-01-30T08:12:05.687Z,1.29
2019-01-30T08:13:05.411Z,1.14
2019-01-30T08:14:06.322Z,1.25
2019-01-30T08:15:05.413Z,1.28
2019-01-30T08:16:05.280Z,1.32
2019-01-30T08:17:05.033Z,1.36
2019-01-30T08:18:05.503Z,1.29
2019-01-30T08:19:05.252Z,1.29
2019-01-30T08:20:05.387Z,1.33
2019-01-30T08:21:05.446Z,1.32
2019-01-30T08:22:05.145Z,1.39
2019-01-30T08:23:05.799Z,1.37
2019-01-30T08:24:06.189Z,1.37
2019-01-30T08:25:05.774Z,1.36
2019-01-30T08:26:05.597Z,1.42
2019-01-30T08:27:05.784Z,1.43
2019-01-30T08:28:05.363Z,1.46
2019-01-30T08:29:05.950Z,1.47
2019-01-30T08:30:05.780Z,1.52
2019-01-30T08:31:05.618Z,1.42
2019-01-30T08:32:05.664Z,1.5
2019-01-30T08:33:10.843Z,1.46
2019-01-30T08:34:05.233Z,1.55
2019-01-30T08:35:04.577Z,1.47
2019-01-30T08:36:04.821Z,1.54
2019-01-30T08:37:04.800Z,1.58
2019-01-30T08:38:05.080Z,1.54
2019-01-30T08:39:04.995Z,1.52
2019-01-30T08:40:04.480Z,1.6
2019-01-30T08:41:04.437Z,1.55
2019-01-30T08:42:04.413Z,1.64
2019-01-30T08:43:04.929Z,1.6
2019-01-30T08:44:04.894Z,1.6
2019-01-30T08:45:04.742Z,1.65
2019-01-30T08:46:04.575Z,1.6
2019-01-30T08:47:04.305Z,1.69
2019-01-30T08:48:04.276Z,1.68
2019-01-30T08:49:04.257Z,1.68
2019-01-30T08:50:04.739Z,1.69
2019-01-30T08:51:04.457Z,1.61
2019-01-30T08:52:04.183Z,1.76
2019-01-30T08:53:04.674Z,1.78
2019-01-30T08:54:04.644Z,1.71
2019-01-30T08:55:04.387Z,1.8
2019-01-30T08:56:04.618Z,1.8
2019-01-30T08:57:04.339Z,1.85
2019-01-30T08:58:04.294Z,1.82
2019-01-30T08:59:05.843Z,1.93
2019-01-30T09:00:04.261Z,1.79
2019-01-30T09:01:04.230Z,1.79
2019-01-30T09:02:03.955Z,1.87
2019-01-30T09:03:14.073Z,1.93
2019-01-30T09:04:04.157Z,1.9
2019-01-30T09:05:04.138Z,1.97
2019-01-30T09:06:04.125Z,1.93
2019-01-30T09:07:04.342Z,2.01
2019-01-30T09:08:04.733Z,1.99
2019-01-30T09:09:04.297Z,1.98
2019-01-30T09:10:04.050Z,1.91
2019-01-30T09:11:04.283Z,1.94
2019-01-30T09:12:03.983Z,1.98
2019-01-30T09:13:04.204Z,1.99
2019-01-30T09:14:03.674Z,1.99
2019-01-30T09:15:03.914Z,1.99
2019-01-30T09:16:03.884Z,2.08
2019-01-30T09:17:06.615Z,2.12
2019-01-30T09:18:04.103Z,2.08
2019-01-30T09:19:05.296Z,2.12
2019-01-30T09:20:04.050Z,2.09
2019-01-30T09:21:03.772Z,2.09
2019-01-30T09:22:03.492Z,2.08
2019-01-30T09:23:03.978Z,2.09
2019-01-30T09:24:03.725Z,2.04
2019-01-30T09:25:03.677Z,2.16
2019-01-30T09:26:03.912Z,2.09
2019-01-30T09:27:03.634Z,2.08
2019-01-30T09:28:03.607Z,2.09
2019-01-30T09:29:03.340Z,2.08
2019-01-30T09:30:03.565Z,2.09
2019-01-30T09:31:03.794Z,2.04
2019-01-30T09:32:03.525Z,2.16
2019-01-30T09:33:03.759Z,2.08
2019-01-30T09:34:03.536Z,2.02
2019-01-30T09:35:03.502Z,2.09
2019-01-30T09:36:03.694Z,2.12
2019-01-30T09:37:03.719Z,2.04
2019-01-30T09:38:03.382Z,2.1
2019-01-30T09:39:03.718Z,2.13
2019-01-30T09:40:03.886Z,2.08
2019-01-30T09:41:03.395Z,2.2
2019-01-30T09:42:03.582Z,2.13
2019-01-30T09:43:03.259Z,2.09
2019-01-30T09:44:03.022Z,2.09
2019-01-30T09:45:03.268Z,2.1
2019-01-30T09:46:03.198Z,2.17
2019-01-30T09:47:03.360Z,2.12
2019-01-30T09:48:03.468Z,2.12
2019-01-30T09:49:03.169Z,2.17
2019-01-30T09:50:03.106Z,2.13
2019-01-30T09:51:03.079Z,2.17
2019-01-30T09:52:03.319Z,2.09
2019-01-30T09:53:03.156Z,2.1
2019-01-30T09:54:03.074Z,2.16
2019-01-30T09:55:03.217Z,2.16
2019-01-30T09:56:03.220Z,2.06
2019-01-30T09:57:02.951Z,2.08
2019-01-30T09:58:03.172Z,2.15
2019-01-30T09:59:03.149Z,2.15
2019-01-30T10:00:02.877Z,2.16
2019-01-30T10:01:02.865Z,2.17
2019-01-30T10:02:03.130Z,2.17
2019-01-30T10:03:02.815Z,2.17
2019-01-30T10:04:03.034Z,2.17
2019-01-30T10:05:03.009Z,2.13
2019-01-30T10:06:02.990Z,2.06
2019-01-30T10:07:02.710Z,2.08
2019-01-30T10:08:02.709Z,2.13
2019-01-30T10:09:02.702Z,2.02
2019-01-30T10:10:02.645Z,2.09
2019-01-30T10:11:02.633Z,2.06
2019-01-30T10:12:02.600Z,1.99
2019-01-30T10:13:02.400Z,2.01
2019-01-30T10:14:02.298Z,1.97
2019-01-30T10:15:02.797Z,1.99
2019-01-30T10:16:02.520Z,1.93
2019-01-30T10:17:02.764Z,1.99
2019-01-30T10:18:02.460Z,1.91
2019-01-30T10:19:02.437Z,1.94
2019-01-30T10:20:02.743Z,1.98
2019-01-30T10:21:02.142Z,1.91
2019-01-30T10:22:02.368Z,1.89
2019-01-30T10:23:02.619Z,1.87
2019-01-30T10:24:02.320Z,1.94
2019-01-30T10:25:02.804Z,1.94
2019-01-30T10:26:02.276Z,1.98
2019-01-30T10:27:02.248Z,1.98
2019-01-30T10:28:02.231Z,1.98
2019-01-30T10:29:02.459Z,1.93
2019-01-30T10:30:03.446Z,2.02
2019-01-30T10:31:02.415Z,1.94
2019-01-30T10:32:02.395Z,1.9
2019-01-30T10:33:02.417Z,1.91
2019-01-30T10:34:02.090Z,1.83
2019-01-30T10:35:01.819Z,1.82
2019-01-30T10:36:02.139Z,1.91
2019-01-30T10:37:03.695Z,1.94
2019-01-30T10:38:02.000Z,1.98
2019-01-30T10:39:02.235Z,1.98
2019-01-30T10:40:01.966Z,1.89
2019-01-30T10:41:01.939Z,1.9
2019-01-30T10:42:02.257Z,1.89
2019-01-30T10:43:02.217Z,1.99
2019-01-30T10:44:02.116Z,1.91
2019-01-30T10:45:01.854Z,1.99
2019-01-30T10:46:01.820Z,1.9
2019-01-30T10:47:02.050Z,1.94
2019-01-30T10:48:02.021Z,1.82
2019-01-30T10:49:01.494Z,1.94
2019-01-30T10:50:01.982Z,1.87
2019-01-30T10:51:01.452Z,1.89
2019-01-30T10:52:01.938Z,1.8
2019-01-30T10:53:01.402Z,1.91
2019-01-30T10:54:01.629Z,1.9
2019-01-30T10:55:01.866Z,2.02
2019-01-30T10:56:01.582Z,1.91
2019-01-30T10:57:01.567Z,2.04
2019-01-30T10:58:01.368Z,1.94
2019-01-30T10:59:01.523Z,1.97
2019-01-30T11:00:01.496Z,2.1
2019-01-30T11:01:01.736Z,2.04
2019-01-30T11:02:01.453Z,2.15
2019-01-30T11:03:01.428Z,2.16
2019-01-30T11:04:02.257Z,2.15
2019-01-30T11:05:01.682Z,2.1
2019-01-30T11:06:01.629Z,2.19
2019-01-30T11:07:01.583Z,2.27
2019-01-30T11:08:01.313Z,2.2
2019-01-30T11:09:01.036Z,2.31
2019-01-30T11:10:01.266Z,2.33
2019-01-30T11:11:10.226Z,2.19
2019-01-30T11:12:01.476Z,2.2
2019-01-30T11:13:01.203Z,2.31
2019-01-30T11:14:01.430Z,2.31
2019-01-30T11:15:02.705Z,2.34
2019-01-30T11:16:03.720Z,2.27
2019-01-30T11:17:01.364Z,2.35
2019-01-30T11:18:01.363Z,2.33
2019-01-30T11:19:01.112Z,2.35
2019-01-30T11:20:01.333Z,2.31
2019-01-30T11:21:01.030Z,2.41
2019-01-30T11:22:01.248Z,2.4
2019-01-30T11:23:00.968Z,2.48
2019-01-30T11:24:00.949Z,2.53
2019-01-30T11:25:01.180Z,2.58
2019-01-30T11:26:01.657Z,2.52
2019-01-30T11:27:00.877Z,2.53
2019-01-30T11:28:00.867Z,2.63
2019-01-30T11:29:01.100Z,2.61
2019-01-30T11:30:01.070Z,2.64
2019-01-30T11:31:00.818Z,2.63
2019-01-30T11:32:00.778Z,2.58
2019-01-30T11:33:00.757Z,2.48
2019-01-30T11:34:09.712Z,2.56
2019-01-30T11:35:00.446Z,2.45
2019-01-30T11:36:00.675Z,2.49
2019-01-30T11:37:02.749Z,2.46
2019-01-30T11:38:00.695Z,2.48
2019-01-30T11:39:00.871Z,2.45
2019-01-30T11:40:01.074Z,2.45
2019-01-30T11:41:00.842Z,2.59
2019-01-30T11:42:00.622Z,2.49
2019-01-30T11:43:00.781Z,2.48
2019-01-30T11:44:00.245Z,2.49
2019-01-30T11:45:00.480Z,2.4
2019-01-30T11:46:00.213Z,2.41
2019-01-30T11:47:00.439Z,2.46
2019-01-30T11:48:00.679Z,2.38
2019-01-30T11:49:01.598Z,2.38
2019-01-30T11:50:00.370Z,2.28
2019-01-30T11:51:00.343Z,2.33
2019-01-30T11:52:00.334Z,2.38
2019-01-30T11:53:00.297Z,2.33
2019-01-30T11:54:00.277Z,2.33
2019-01-30T11:55:00.511Z,2.4
2019-01-30T11:55:59.994Z,2.4
2019-01-30T11:57:00.219Z,2.4
2019-01-30T11:58:00.441Z,2.4
2019-01-30T11:58:59.981Z,2.44
2019-01-30T12:00:00.327Z,2.37
2019-01-30T12:01:00.116Z,2.35
2019-01-30T12:02:00.409Z,2.37
2019-01-30T12:03:00.342Z,2.35
2019-01-30T12:04:00.098Z,2.28
2019-01-30T12:04:59.783Z,2.3
2019-01-30T12:06:00.006Z,2.28
2019-01-30T12:06:59.984Z,2.37
2019-01-30T12:08:00.217Z,2.27
2019-01-30T12:09:00.261Z,2.31
2019-01-30T12:10:00.571Z,2.28
2019-01-30T12:11:00.148Z,2.2
2019-01-30T12:11:59.870Z,2.15
2019-01-30T12:12:59.849Z,2.26
2019-01-30T12:14:00.093Z,2.3
2019-01-30T12:14:59.806Z,2.3
2019-01-30T12:15:59.780Z,2.28
2019-01-30T12:16:59.764Z,2.31
2019-01-30T12:17:59.990Z,2.34
2019-01-30T12:18:59.461Z,2.28
2019-01-30T12:19:59.958Z,2.34
2019-01-30T12:20:59.685Z,2.34
2019-01-30T12:21:59.673Z,2.27
2019-01-30T12:22:59.629Z,2.28
2019-01-30T12:23:59.652Z,2.27
2019-01-30T12:24:59.581Z,2.33
2019-01-30T12:25:59.816Z,2.33
2019-01-30T12:26:59.790Z,2.26
2019-01-30T12:27:59.521Z,2.27
2019-01-30T12:28:59.746Z,2.23
2019-01-30T12:29:59.732Z,2.27
2019-01-30T12:30:59.189Z,2.33
2019-01-30T12:31:59.441Z,2.3
2019-01-30T12:32:59.399Z,2.3
2019-01-30T12:34:01.326Z,2.22
2019-01-30T12:34:59.615Z,2.28
2019-01-30T12:35:59.328Z,2.31
2019-01-30T12:36:59.313Z,2.33
2019-01-30T12:37:59.638Z,2.26
2019-01-30T12:38:59.303Z,2.3
2019-01-30T12:39:59.241Z,2.26
2019-01-30T12:40:59.219Z,2.22
2019-01-30T12:41:59.196Z,2.19
2019-01-30T12:42:59.428Z,2.2
2019-01-30T12:43:59.161Z,2.2
2019-01-30T12:44:58.879Z,2.2
2019-01-30T12:45:59.114Z,2.16
2019-01-30T12:46:59.083Z,2.27
2019-01-30T12:47:59.063Z,2.15
2019-01-30T12:48:59.036Z,2.19
2019-01-30T12:49:58.757Z,2.22
2019-01-30T12:50:59.335Z,2.16
2019-01-30T12:51:59.223Z,2.15
2019-01-30T12:52:58.952Z,2.23
2019-01-30T12:53:58.921Z,2.17
2019-01-30T12:54:59.166Z,2.26
2019-01-30T12:55:58.891Z,2.19
2019-01-30T12:56:58.608Z,2.23
2019-01-30T12:57:59.085Z,2.26
2019-01-30T12:58:58.920Z,2.19
2019-01-30T12:59:58.804Z,2.26
2019-01-30T13:00:58.765Z,2.27
2019-01-30T13:01:58.744Z,2.28
2019-01-30T13:02:58.780Z,2.2
2019-01-30T13:03:58.694Z,2.26
2019-01-30T13:04:58.935Z,2.26
2019-01-30T13:05:58.647Z,2.16
2019-01-30T13:06:58.643Z,2.27
2019-01-30T13:07:58.856Z,2.3
2019-01-30T13:08:59.040Z,2.3
2019-01-30T13:09:58.810Z,2.31
2019-01-30T13:10:58.805Z,2.3
2019-01-30T13:11:58.267Z,2.33
2019-01-30T13:12:58.746Z,2.22
2019-01-30T13:13:58.473Z,2.2
2019-01-30T13:14:58.451Z,2.28
2019-01-30T13:15:58.767Z,2.3
2019-01-30T13:16:58.403Z,2.26
2019-01-30T13:17:58.409Z,2.26
2019-01-30T13:18:58.353Z,2.28
2019-01-30T13:19:58.482Z,2.31
2019-01-30T13:20:58.305Z,2.38
2019-01-30T13:21:58.541Z,2.35